WATT/KOE METAR and TAF weather

Enter ICAO airport designator
Station Type Date Time Source
WATT METAR 2022/12/04 11:30 UTC NOAA

WATT 041130Z 09005KT 8000 FEW018 27/23 Q1009 NOSIG


Station Type Date Time Source
WATT Decoded METAR 2022/12/04 11:30 UTC NOAA

Station name not available
Dec 04, 2022 - 06:30 AM EST / 2022.12.04 1130 UTC
Wind: from the E (090 degrees) at 6 MPH (5 KT):0
Visibility: 4 mile(s):0
Sky conditions: mostly clear
Temperature: 80 F (27 C)
Dew Point: 73 F (23 C)
Relative Humidity: 78%
Pressure (altimeter): 29.80 in. Hg (1009 hPa)
ob: WATT 041130Z 09005KT 8000 FEW018 27/23 Q1009 NOSIG
cycle: 11

Station Type Date Time Source
WATT TAF 2022/12/04 06:00 UTC NOAA

TAF WATT 040500Z 0406/0506 30010KT 9999 FEW018
BECMG 0411/0412 16008KT

Example: see airport list